createdAt,value
2023-04-07T00:01:29.181Z,96588.94
2023-04-07T00:11:35.640Z,96571.84
2023-04-07T00:21:42.470Z,96546.97
2023-04-07T00:31:48.899Z,96548.31
2023-04-07T00:41:55.410Z,96532.78
2023-04-07T00:52:02.765Z,96520.78
2023-04-07T01:02:18.199Z,96502.66
2023-04-07T01:12:34.577Z,96488.44
2023-04-07T01:22:47.687Z,96483.38
2023-04-07T01:32:54.944Z,96453.78
2023-04-07T01:43:02.187Z,96435.75
2023-04-07T01:53:09.029Z,96418.53
2023-04-07T02:03:22.824Z,96405.00
2023-04-07T02:13:30.463Z,96384.31
2023-04-07T02:23:37.482Z,96386.22
2023-04-07T02:33:43.953Z,96378.94
2023-04-07T02:43:50.508Z,96372.06
2023-04-07T02:53:57.289Z,96375.50
2023-04-07T03:04:04.012Z,96370.66
2023-04-07T03:14:10.617Z,96340.28
2023-04-07T03:24:17.219Z,96310.91
2023-04-07T03:34:23.692Z,96299.88
2023-04-07T03:44:30.189Z,96286.84
2023-04-07T03:54:36.898Z,96269.91
2023-04-07T04:04:43.781Z,96242.66
2023-04-07T04:14:50.226Z,96245.53
2023-04-07T04:24:56.871Z,96222.44
2023-04-07T04:35:03.513Z,96197.97
2023-04-07T04:45:10.414Z,96202.56
2023-04-07T04:55:17.443Z,96215.47
2023-04-07T05:05:23.942Z,96219.06
2023-04-07T05:15:30.488Z,96221.63
2023-04-07T05:25:37.227Z,96207.81
2023-04-07T05:35:46.144Z,96201.03
2023-04-07T05:45:52.806Z,96185.62
2023-04-07T05:56:00.388Z,96174.91
2023-04-07T06:06:07.256Z,96165.88
2023-04-07T06:16:13.807Z,96149.63
2023-04-07T06:26:20.306Z,96136.22
2023-04-07T06:36:27.072Z,96134.44
2023-04-07T06:46:33.713Z,96146.28
2023-04-07T06:56:40.541Z,96129.78
2023-04-07T07:06:47.074Z,96155.59
2023-04-07T07:16:53.550Z,96153.69
2023-04-07T07:26:59.997Z,96139.72
2023-04-07T07:37:06.678Z,96157.09
2023-04-07T07:47:13.902Z,96151.50
2023-04-07T07:57:20.401Z,96167.72
2023-04-07T08:07:26.999Z,96191.09
2023-04-07T08:17:33.532Z,96190.41
2023-04-07T08:27:40.133Z,96182.16
2023-04-07T08:37:47.060Z,96152.63
2023-04-07T08:47:58.440Z,96148.84
2023-04-07T08:58:05.193Z,96134.84
2023-04-07T09:08:11.719Z,96115.22
2023-04-07T09:18:18.387Z,96108.81
2023-04-07T09:28:25.073Z,96136.72
2023-04-07T09:38:35.908Z,96132.44
2023-04-07T09:48:42.877Z,96116.22
2023-04-07T09:58:52.776Z,96150.00
2023-04-07T10:08:59.640Z,96129.13
2023-04-07T10:29:31.262Z,96094.41
2023-04-07T10:39:39.110Z,96082.19
2023-04-07T10:50:14.130Z,96057.25
2023-04-07T11:00:21.050Z,96052.94
2023-04-07T11:10:27.615Z,96034.69
2023-04-07T11:20:46.082Z,95984.97
2023-04-07T11:30:55.446Z,95914.56
2023-04-07T11:41:12.481Z,95894.06
2023-04-07T11:51:20.656Z,95833.69
2023-04-07T12:01:41.887Z,95821.69
2023-04-07T12:11:51.592Z,95796.38
2023-04-07T12:21:58.468Z,95801.63
2023-04-07T12:32:06.148Z,95797.75
2023-04-07T12:42:13.371Z,95826.53
2023-04-07T12:52:19.841Z,95856.94
2023-04-07T13:02:26.451Z,95880.00
2023-04-07T13:12:32.996Z,95904.72
2023-04-07T13:22:48.802Z,95856.47
2023-04-07T13:32:58.799Z,95863.88
2023-04-07T13:43:05.509Z,95863.53
2023-04-07T13:53:12.104Z,95883.94
2023-04-07T14:03:18.639Z,95879.72
2023-04-07T14:13:25.145Z,95910.69
2023-04-07T14:23:37.162Z,95928.63
2023-04-07T14:33:45.215Z,95902.97
2023-04-07T14:43:57.128Z,95894.94
2023-04-07T14:54:03.731Z,95843.88
2023-04-07T15:04:10.313Z,95811.25
2023-04-07T15:14:16.871Z,95703.69
2023-04-07T15:24:23.674Z,95718.97
2023-04-07T15:34:30.170Z,95700.72
2023-04-07T15:44:40.902Z,95705.47
2023-04-07T15:54:47.372Z,95692.94
2023-04-07T16:04:53.934Z,95687.81
2023-04-07T16:15:00.436Z,95697.63
2023-04-07T16:25:07.721Z,95685.31
2023-04-07T16:35:15.864Z,95665.84
2023-04-07T16:45:22.362Z,95683.50
2023-04-07T16:55:30.129Z,95686.75
2023-04-07T17:05:36.788Z,95682.44
2023-04-07T17:15:43.305Z,95685.13
2023-04-07T17:25:52.870Z,95679.69
2023-04-07T17:35:59.613Z,95668.06
2023-04-07T17:46:06.307Z,95654.84
2023-04-07T17:56:13.929Z,95638.09
2023-04-07T18:06:20.579Z,95600.53
2023-04-07T18:16:27.187Z,95600.16
2023-04-07T18:26:33.797Z,95593.81
2023-04-07T18:36:42.620Z,95590.63
2023-04-07T18:46:49.157Z,95579.09
2023-04-07T18:56:55.986Z,95553.38
2023-04-07T19:07:02.926Z,95550.56
2023-04-07T19:17:09.403Z,95531.16
2023-04-07T19:27:16.144Z,95522.13
2023-04-07T19:37:22.612Z,95522.97
2023-04-07T19:47:29.764Z,95512.31
2023-04-07T19:57:36.318Z,95511.87
2023-04-07T20:07:43.065Z,95510.44
2023-04-07T20:17:49.645Z,95529.34
2023-04-07T20:27:56.159Z,95552.53
2023-04-07T20:38:04.088Z,95547.59
2023-04-07T20:48:10.570Z,95575.84
2023-04-07T20:58:19.000Z,95565.78
2023-04-07T21:08:25.971Z,95510.75
2023-04-07T21:18:33.364Z,95467.84
2023-04-07T21:28:41.775Z,95496.72
2023-04-07T21:38:49.007Z,95446.50
2023-04-07T21:48:55.832Z,95405.03
2023-04-07T21:59:02.878Z,95356.03
2023-04-07T22:09:12.368Z,95292.59
2023-04-07T22:19:19.121Z,95243.81
2023-04-07T22:29:25.643Z,94955.44
2023-04-07T22:39:32.261Z,94714.56
2023-04-07T22:49:38.725Z,94559.22
2023-04-07T22:59:45.295Z,94442.13
2023-04-07T23:09:51.744Z,94323.84
2023-04-07T23:19:58.342Z,94122.41
2023-04-07T23:30:05.855Z,93937.25
2023-04-07T23:40:12.756Z,93711.50
2023-04-07T23:50:19.269Z,93587.16
